Terminal Aerodrome Forecast
Issued by NWS Cleveland, OH

Home | Current Version | Previous Version | Graphics & Text | Print | Product List | Glossary On
Versions: 1 2 3 4 5 6 7 8 9 10 11 12 13 14
313
FTUS41 KCLE 291945 AAA
TAFCAK
TAF AMD
KCAK 291945Z 2920/3018 23007KT P6SM OVC120
     FM292200 21007KT P6SM SCT035
      TEMPO 2922/2923 -TSRA BKN035CB
     FM300000 VRB03KT P6SM OVC035
     FM301500 28005KT P6SM SKC=

USA.gov is the U.S. government's official web portal to all federal, state and local government web resources and services.